sensor_id;sensor_type;location;lat;lon;timestamp;P1;durP1;ratioP1;P2;durP2;ratioP2
10479;SDS011;12789;42.610;23.040;2022-07-29T00:01:19;19.50;;;11.32;;
10479;SDS011;12789;42.610;23.040;2022-07-29T00:03:46;16.27;;;11.68;;
10479;SDS011;12789;42.610;23.040;2022-07-29T00:06:14;16.35;;;11.55;;
10479;SDS011;12789;42.610;23.040;2022-07-29T00:08:41;17.60;;;12.32;;
10479;SDS011;12789;42.610;23.040;2022-07-29T00:11:08;16.55;;;12.63;;
10479;SDS011;12789;42.610;23.040;2022-07-29T00:13:35;17.35;;;12.43;;
10479;SDS011;12789;42.610;23.040;2022-07-29T00:16:02;17.40;;;12.30;;
10479;SDS011;12789;42.610;23.040;2022-07-29T00:18:30;18.77;;;12.80;;
10479;SDS011;12789;42.610;23.040;2022-07-29T00:20:57;22.83;;;14.07;;
10479;SDS011;12789;42.610;23.040;2022-07-29T00:23:25;17.65;;;12.02;;
10479;SDS011;12789;42.610;23.040;2022-07-29T00:25:53;16.30;;;11.23;;
10479;SDS011;12789;42.610;23.040;2022-07-29T00:28:19;16.95;;;11.60;;
10479;SDS011;12789;42.610;23.040;2022-07-29T00:30:46;15.40;;;11.40;;
10479;SDS011;12789;42.610;23.040;2022-07-29T00:33:13;16.55;;;11.52;;
10479;SDS011;12789;42.610;23.040;2022-07-29T00:35:40;14.90;;;12.05;;
10479;SDS011;12789;42.610;23.040;2022-07-29T00:38:09;14.95;;;11.55;;
10479;SDS011;12789;42.610;23.040;2022-07-29T00:40:38;18.55;;;12.15;;
10479;SDS011;12789;42.610;23.040;2022-07-29T00:43:05;20.17;;;12.15;;
10479;SDS011;12789;42.610;23.040;2022-07-29T00:45:32;18.77;;;13.23;;
10479;SDS011;12789;42.610;23.040;2022-07-29T00:48:00;16.95;;;11.50;;
10479;SDS011;12789;42.610;23.040;2022-07-29T00:50:28;18.15;;;11.85;;
10479;SDS011;12789;42.610;23.040;2022-07-29T00:52:55;18.65;;;12.35;;
10479;SDS011;12789;42.610;23.040;2022-07-29T00:55:23;15.48;;;11.50;;
10479;SDS011;12789;42.610;23.040;2022-07-29T00:57:51;20.33;;;12.77;;
10479;SDS011;12789;42.610;23.040;2022-07-29T01:00:19;17.00;;;11.98;;
10479;SDS011;12789;42.610;23.040;2022-07-29T01:02:48;17.25;;;12.10;;
10479;SDS011;12789;42.610;23.040;2022-07-29T01:05:16;15.27;;;12.05;;
10479;SDS011;12789;42.610;23.040;2022-07-29T01:07:47;18.92;;;11.93;;
10479;SDS011;12789;42.610;23.040;2022-07-29T01:10:17;17.15;;;12.95;;
10479;SDS011;12789;42.610;23.040;2022-07-29T01:12:46;19.40;;;13.05;;
10479;SDS011;12789;42.610;23.040;2022-07-29T01:15:17;16.80;;;12.40;;
10479;SDS011;12789;42.610;23.040;2022-07-29T01:17:45;22.60;;;12.50;;
10479;SDS011;12789;42.610;23.040;2022-07-29T01:20:23;19.73;;;12.43;;
10479;SDS011;12789;42.610;23.040;2022-07-29T01:23:01;16.27;;;12.20;;
10479;SDS011;12789;42.610;23.040;2022-07-29T01:26:04;24.45;;;12.60;;
10479;SDS011;12789;42.610;23.040;2022-07-29T01:29:00;20.00;;;12.45;;
10479;SDS011;12789;42.610;23.040;2022-07-29T01:31:33;17.75;;;13.27;;
10479;SDS011;12789;42.610;23.040;2022-07-29T01:34:26;23.17;;;13.13;;
10479;SDS011;12789;42.610;23.040;2022-07-29T01:37:18;21.33;;;13.45;;
10479;SDS011;12789;42.610;23.040;2022-07-29T01:40:22;24.17;;;13.82;;
10479;SDS011;12789;42.610;23.040;2022-07-29T01:43:01;28.95;;;13.95;;
10479;SDS011;12789;42.610;23.040;2022-07-29T01:45:48;23.77;;;13.85;;
10479;SDS011;12789;42.610;23.040;2022-07-29T01:48:31;27.10;;;14.10;;
10479;SDS011;12789;42.610;23.040;2022-07-29T01:51:11;23.80;;;14.20;;
10479;SDS011;12789;42.610;23.040;2022-07-29T01:53:43;27.00;;;13.63;;
10479;SDS011;12789;42.610;23.040;2022-07-29T01:56:32;31.80;;;13.15;;
10479;SDS011;12789;42.610;23.040;2022-07-29T01:59:10;30.80;;;14.15;;
10479;SDS011;12789;42.610;23.040;2022-07-29T02:05:21;26.88;;;14.25;;
10479;SDS011;12789;42.610;23.040;2022-07-29T02:08:41;30.98;;;15.02;;
10479;SDS011;12789;42.610;23.040;2022-07-29T02:11:10;27.05;;;14.38;;
10479;SDS011;12789;42.610;23.040;2022-07-29T02:13:37;23.98;;;13.82;;
10479;SDS011;12789;42.610;23.040;2022-07-29T02:16:09;30.27;;;14.52;;
10479;SDS011;12789;42.610;23.040;2022-07-29T02:18:39;20.90;;;14.35;;
10479;SDS011;12789;42.610;23.040;2022-07-29T02:21:09;26.63;;;14.75;;
10479;SDS011;12789;42.610;23.040;2022-07-29T02:23:38;26.02;;;13.70;;
10479;SDS011;12789;42.610;23.040;2022-07-29T02:26:08;22.55;;;15.13;;
10479;SDS011;12789;42.610;23.040;2022-07-29T02:28:36;27.67;;;14.70;;
10479;SDS011;12789;42.610;23.040;2022-07-29T02:31:06;23.35;;;14.38;;
10479;SDS011;12789;42.610;23.040;2022-07-29T02:33:36;21.63;;;14.30;;
10479;SDS011;12789;42.610;23.040;2022-07-29T02:36:07;21.27;;;13.80;;
10479;SDS011;12789;42.610;23.040;2022-07-29T02:38:35;18.52;;;12.95;;
10479;SDS011;12789;42.610;23.040;2022-07-29T02:41:23;23.17;;;13.82;;
10479;SDS011;12789;42.610;23.040;2022-07-29T02:43:55;22.02;;;13.95;;
10479;SDS011;12789;42.610;23.040;2022-07-29T02:46:27;20.85;;;13.60;;
10479;SDS011;12789;42.610;23.040;2022-07-29T02:49:01;19.58;;;13.93;;
10479;SDS011;12789;42.610;23.040;2022-07-29T02:51:36;23.70;;;13.95;;
10479;SDS011;12789;42.610;23.040;2022-07-29T02:54:10;21.73;;;13.75;;
10479;SDS011;12789;42.610;23.040;2022-07-29T02:56:49;23.73;;;13.75;;
10479;SDS011;12789;42.610;23.040;2022-07-29T02:59:22;24.30;;;13.80;;
10479;SDS011;12789;42.610;23.040;2022-07-29T03:01:54;25.50;;;13.90;;
10479;SDS011;12789;42.610;23.040;2022-07-29T03:04:34;26.77;;;14.77;;
10479;SDS011;12789;42.610;23.040;2022-07-29T03:07:04;23.50;;;14.75;;
10479;SDS011;12789;42.610;23.040;2022-07-29T03:09:35;24.88;;;13.95;;
10479;SDS011;12789;42.610;23.040;2022-07-29T03:12:10;24.60;;;13.77;;
10479;SDS011;12789;42.610;23.040;2022-07-29T03:14:38;21.95;;;14.88;;
10479;SDS011;12789;42.610;23.040;2022-07-29T03:17:08;20.90;;;15.00;;
10479;SDS011;12789;42.610;23.040;2022-07-29T03:19:37;27.58;;;15.55;;
10479;SDS011;12789;42.610;23.040;2022-07-29T03:22:06;24.25;;;14.88;;
10479;SDS011;12789;42.610;23.040;2022-07-29T03:24:36;22.35;;;15.85;;
10479;SDS011;12789;42.610;23.040;2022-07-29T03:27:04;27.45;;;15.18;;
10479;SDS011;12789;42.610;23.040;2022-07-29T03:29:32;25.35;;;15.38;;
10479;SDS011;12789;42.610;23.040;2022-07-29T03:32:01;27.45;;;13.85;;
10479;SDS011;12789;42.610;23.040;2022-07-29T03:34:29;24.92;;;15.05;;
10479;SDS011;12789;42.610;23.040;2022-07-29T03:37:02;27.48;;;16.90;;
10479;SDS011;12789;42.610;23.040;2022-07-29T03:39:29;26.02;;;16.73;;
10479;SDS011;12789;42.610;23.040;2022-07-29T03:42:02;23.27;;;15.30;;
10479;SDS011;12789;42.610;23.040;2022-07-29T03:44:34;32.58;;;16.80;;
10479;SDS011;12789;42.610;23.040;2022-07-29T03:47:03;28.20;;;16.73;;
10479;SDS011;12789;42.610;23.040;2022-07-29T03:49:36;34.08;;;17.15;;
10479;SDS011;12789;42.610;23.040;2022-07-29T03:52:19;27.05;;;16.52;;
10479;SDS011;12789;42.610;23.040;2022-07-29T03:55:01;30.85;;;17.27;;
10479;SDS011;12789;42.610;23.040;2022-07-29T03:59:57;32.17;;;18.73;;
10479;SDS011;12789;42.610;23.040;2022-07-29T04:02:29;34.50;;;19.05;;
10479;SDS011;12789;42.610;23.040;2022-07-29T04:05:01;30.02;;;16.45;;
10479;SDS011;12789;42.610;23.040;2022-07-29T04:07:34;26.85;;;16.48;;
10479;SDS011;12789;42.610;23.040;2022-07-29T04:10:08;28.25;;;16.67;;
10479;SDS011;12789;42.610;23.040;2022-07-29T04:12:43;29.30;;;17.55;;
10479;SDS011;12789;42.610;23.040;2022-07-29T04:15:10;30.38;;;17.55;;
10479;SDS011;12789;42.610;23.040;2022-07-29T04:17:37;32.92;;;18.05;;
10479;SDS011;12789;42.610;23.040;2022-07-29T04:20:05;30.75;;;16.83;;
10479;SDS011;12789;42.610;23.040;2022-07-29T04:22:34;31.85;;;16.38;;
10479;SDS011;12789;42.610;23.040;2022-07-29T04:25:01;26.25;;;16.50;;
10479;SDS011;12789;42.610;23.040;2022-07-29T04:27:28;25.73;;;16.02;;
10479;SDS011;12789;42.610;23.040;2022-07-29T04:29:55;27.52;;;16.63;;
10479;SDS011;12789;42.610;23.040;2022-07-29T04:32:22;24.85;;;16.95;;
10479;SDS011;12789;42.610;23.040;2022-07-29T04:34:50;31.63;;;17.08;;
10479;SDS011;12789;42.610;23.040;2022-07-29T04:37:18;31.05;;;17.98;;
10479;SDS011;12789;42.610;23.040;2022-07-29T04:39:48;26.20;;;15.68;;
10479;SDS011;12789;42.610;23.040;2022-07-29T04:42:15;25.35;;;16.65;;
10479;SDS011;12789;42.610;23.040;2022-07-29T04:44:42;23.00;;;16.48;;
10479;SDS011;12789;42.610;23.040;2022-07-29T04:47:09;35.20;;;16.98;;
10479;SDS011;12789;42.610;23.040;2022-07-29T04:49:37;31.48;;;17.48;;
10479;SDS011;12789;42.610;23.040;2022-07-29T04:52:05;27.15;;;17.42;;
10479;SDS011;12789;42.610;23.040;2022-07-29T04:54:32;34.60;;;17.75;;
10479;SDS011;12789;42.610;23.040;2022-07-29T04:57:03;32.63;;;17.17;;
10479;SDS011;12789;42.610;23.040;2022-07-29T04:59:36;29.05;;;17.73;;
10479;SDS011;12789;42.610;23.040;2022-07-29T05:02:14;28.98;;;16.90;;
10479;SDS011;12789;42.610;23.040;2022-07-29T05:04:41;35.38;;;16.77;;
10479;SDS011;12789;42.610;23.040;2022-07-29T05:07:09;28.45;;;17.73;;
10479;SDS011;12789;42.610;23.040;2022-07-29T05:12:43;22.83;;;16.20;;
10479;SDS011;12789;42.610;23.040;2022-07-29T05:15:15;28.17;;;17.50;;
10479;SDS011;12789;42.610;23.040;2022-07-29T05:17:42;29.00;;;16.63;;
10479;SDS011;12789;42.610;23.040;2022-07-29T05:20:09;28.65;;;17.25;;
10479;SDS011;12789;42.610;23.040;2022-07-29T05:22:37;32.67;;;16.55;;
10479;SDS011;12789;42.610;23.040;2022-07-29T05:25:04;33.70;;;16.63;;
10479;SDS011;12789;42.610;23.040;2022-07-29T05:27:32;28.88;;;16.38;;
10479;SDS011;12789;42.610;23.040;2022-07-29T05:30:01;32.92;;;18.13;;
10479;SDS011;12789;42.610;23.040;2022-07-29T05:32:29;36.88;;;17.58;;
10479;SDS011;12789;42.610;23.040;2022-07-29T05:34:56;33.95;;;16.88;;
10479;SDS011;12789;42.610;23.040;2022-07-29T05:37:24;29.55;;;16.95;;
10479;SDS011;12789;42.610;23.040;2022-07-29T05:39:53;41.03;;;18.67;;
10479;SDS011;12789;42.610;23.040;2022-07-29T05:42:21;38.47;;;17.73;;
10479;SDS011;12789;42.610;23.040;2022-07-29T05:44:53;37.83;;;18.95;;
10479;SDS011;12789;42.610;23.040;2022-07-29T05:47:23;35.30;;;17.58;;
10479;SDS011;12789;42.610;23.040;2022-07-29T05:49:50;29.42;;;17.63;;
10479;SDS011;12789;42.610;23.040;2022-07-29T05:52:17;30.90;;;15.55;;
10479;SDS011;12789;42.610;23.040;2022-07-29T05:54:45;33.97;;;17.65;;
10479;SDS011;12789;42.610;23.040;2022-07-29T05:57:15;28.52;;;16.27;;
10479;SDS011;12789;42.610;23.040;2022-07-29T05:59:42;29.27;;;15.63;;
10479;SDS011;12789;42.610;23.040;2022-07-29T06:02:09;23.73;;;15.73;;
10479;SDS011;12789;42.610;23.040;2022-07-29T06:04:39;29.40;;;16.00;;
10479;SDS011;12789;42.610;23.040;2022-07-29T06:07:07;28.42;;;15.43;;
10479;SDS011;12789;42.610;23.040;2022-07-29T06:09:35;28.95;;;15.23;;
10479;SDS011;12789;42.610;23.040;2022-07-29T06:12:03;25.10;;;15.18;;
10479;SDS011;12789;42.610;23.040;2022-07-29T06:14:31;25.80;;;14.38;;
10479;SDS011;12789;42.610;23.040;2022-07-29T06:16:57;24.45;;;14.40;;
10479;SDS011;12789;42.610;23.040;2022-07-29T06:19:25;28.38;;;14.50;;
10479;SDS011;12789;42.610;23.040;2022-07-29T06:21:53;27.75;;;15.27;;
10479;SDS011;12789;42.610;23.040;2022-07-29T06:24:20;22.67;;;13.63;;
10479;SDS011;12789;42.610;23.040;2022-07-29T06:26:50;31.05;;;14.85;;
10479;SDS011;12789;42.610;23.040;2022-07-29T06:29:24;22.23;;;14.63;;
10479;SDS011;12789;42.610;23.040;2022-07-29T06:31:57;34.05;;;15.85;;
10479;SDS011;12789;42.610;23.040;2022-07-29T06:34:34;25.80;;;14.48;;
10479;SDS011;12789;42.610;23.040;2022-07-29T06:37:07;25.15;;;13.65;;
10479;SDS011;12789;42.610;23.040;2022-07-29T06:39:43;26.30;;;13.02;;
10479;SDS011;12789;42.610;23.040;2022-07-29T06:42:11;22.65;;;12.70;;
10479;SDS011;12789;42.610;23.040;2022-07-29T06:44:39;20.20;;;13.60;;
10479;SDS011;12789;42.610;23.040;2022-07-29T06:47:15;22.48;;;13.32;;
10479;SDS011;12789;42.610;23.040;2022-07-29T06:49:49;26.48;;;13.85;;
10479;SDS011;12789;42.610;23.040;2022-07-29T06:52:19;21.33;;;13.10;;
10479;SDS011;12789;42.610;23.040;2022-07-29T06:54:51;24.10;;;12.77;;
10479;SDS011;12789;42.610;23.040;2022-07-29T06:57:20;24.50;;;12.88;;
10479;SDS011;12789;42.610;23.040;2022-07-29T06:59:51;23.42;;;13.10;;
10479;SDS011;12789;42.610;23.040;2022-07-29T07:02:23;20.67;;;12.23;;
10479;SDS011;12789;42.610;23.040;2022-07-29T07:04:54;22.58;;;11.80;;
10479;SDS011;12789;42.610;23.040;2022-07-29T07:07:26;16.58;;;11.63;;
10479;SDS011;12789;42.610;23.040;2022-07-29T07:09:59;11.35;;;9.52;;
10479;SDS011;12789;42.610;23.040;2022-07-29T07:12:28;14.50;;;10.45;;
10479;SDS011;12789;42.610;23.040;2022-07-29T07:14:56;16.80;;;11.25;;
10479;SDS011;12789;42.610;23.040;2022-07-29T07:17:30;13.07;;;10.55;;
10479;SDS011;12789;42.610;23.040;2022-07-29T07:20:02;16.70;;;12.05;;
10479;SDS011;12789;42.610;23.040;2022-07-29T07:22:32;14.95;;;11.48;;
10479;SDS011;12789;42.610;23.040;2022-07-29T07:25:03;17.63;;;11.75;;
10479;SDS011;12789;42.610;23.040;2022-07-29T07:27:36;15.90;;;12.30;;
10479;SDS011;12789;42.610;23.040;2022-07-29T07:30:06;19.05;;;11.85;;
10479;SDS011;12789;42.610;23.040;2022-07-29T07:32:38;13.98;;;10.35;;
10479;SDS011;12789;42.610;23.040;2022-07-29T07:35:07;17.48;;;10.63;;
10479;SDS011;12789;42.610;23.040;2022-07-29T07:37:38;16.77;;;11.35;;
10479;SDS011;12789;42.610;23.040;2022-07-29T07:40:19;13.98;;;10.48;;
10479;SDS011;12789;42.610;23.040;2022-07-29T07:42:50;13.15;;;10.30;;
10479;SDS011;12789;42.610;23.040;2022-07-29T07:45:35;10.25;;;9.02;;
10479;SDS011;12789;42.610;23.040;2022-07-29T07:48:08;13.07;;;10.13;;
10479;SDS011;12789;42.610;23.040;2022-07-29T07:50:53;9.55;;;7.97;;
10479;SDS011;12789;42.610;23.040;2022-07-29T07:53:33;11.57;;;8.02;;
10479;SDS011;12789;42.610;23.040;2022-07-29T07:56:13;11.77;;;8.40;;
10479;SDS011;12789;42.610;23.040;2022-07-29T07:58:45;8.88;;;7.97;;
10479;SDS011;12789;42.610;23.040;2022-07-29T08:01:33;8.55;;;7.75;;
10479;SDS011;12789;42.610;23.040;2022-07-29T08:04:10;12.15;;;7.65;;
10479;SDS011;12789;42.610;23.040;2022-07-29T08:06:50;9.27;;;7.50;;
10479;SDS011;12789;42.610;23.040;2022-07-29T08:09:27;12.68;;;8.00;;
10479;SDS011;12789;42.610;23.040;2022-07-29T08:12:05;9.52;;;7.30;;
10479;SDS011;12789;42.610;23.040;2022-07-29T08:14:35;8.70;;;7.65;;
10479;SDS011;12789;42.610;23.040;2022-07-29T08:17:05;7.40;;;6.80;;
10479;SDS011;12789;42.610;23.040;2022-07-29T08:19:34;7.13;;;6.43;;
10479;SDS011;12789;42.610;23.040;2022-07-29T08:22:09;7.07;;;6.13;;
10479;SDS011;12789;42.610;23.040;2022-07-29T08:24:40;7.63;;;6.82;;
10479;SDS011;12789;42.610;23.040;2022-07-29T08:27:21;8.50;;;6.88;;
10479;SDS011;12789;42.610;23.040;2022-07-29T08:30:00;8.27;;;7.18;;
10479;SDS011;12789;42.610;23.040;2022-07-29T08:32:31;8.52;;;7.45;;
10479;SDS011;12789;42.610;23.040;2022-07-29T08:35:00;7.60;;;6.90;;
10479;SDS011;12789;42.610;23.040;2022-07-29T08:37:30;7.60;;;6.30;;
10479;SDS011;12789;42.610;23.040;2022-07-29T08:40:07;8.13;;;6.43;;
10479;SDS011;12789;42.610;23.040;2022-07-29T08:42:39;7.53;;;6.28;;
10479;SDS011;12789;42.610;23.040;2022-07-29T08:45:17;7.35;;;6.45;;
10479;SDS011;12789;42.610;23.040;2022-07-29T08:47:49;8.90;;;6.65;;
10479;SDS011;12789;42.610;23.040;2022-07-29T08:50:21;7.47;;;6.63;;
10479;SDS011;12789;42.610;23.040;2022-07-29T08:52:53;7.53;;;6.03;;
10479;SDS011;12789;42.610;23.040;2022-07-29T08:55:27;7.75;;;6.40;;
10479;SDS011;12789;42.610;23.040;2022-07-29T08:58:02;6.35;;;5.75;;
10479;SDS011;12789;42.610;23.040;2022-07-29T09:00:36;6.22;;;5.60;;
10479;SDS011;12789;42.610;23.040;2022-07-29T09:03:15;6.30;;;5.45;;
10479;SDS011;12789;42.610;23.040;2022-07-29T09:05:51;7.72;;;5.47;;
10479;SDS011;12789;42.610;23.040;2022-07-29T09:08:20;6.07;;;4.97;;
10479;SDS011;12789;42.610;23.040;2022-07-29T09:11:41;5.80;;;5.20;;
10479;SDS011;12789;42.610;23.040;2022-07-29T09:14:15;5.18;;;4.68;;
10479;SDS011;12789;42.610;23.040;2022-07-29T09:16:51;7.40;;;6.03;;
10479;SDS011;12789;42.610;23.040;2022-07-29T09:19:28;9.43;;;4.85;;
10479;SDS011;12789;42.610;23.040;2022-07-29T09:22:03;6.57;;;5.93;;
10479;SDS011;12789;42.610;23.040;2022-07-29T09:24:42;6.97;;;5.53;;
10479;SDS011;12789;42.610;23.040;2022-07-29T09:27:18;6.10;;;5.40;;
10479;SDS011;12789;42.610;23.040;2022-07-29T09:29:58;5.70;;;5.20;;
10479;SDS011;12789;42.610;23.040;2022-07-29T09:32:53;7.07;;;5.20;;
10479;SDS011;12789;42.610;23.040;2022-07-29T09:35:22;7.80;;;5.70;;
10479;SDS011;12789;42.610;23.040;2022-07-29T09:42:03;6.55;;;5.95;;
10479;SDS011;12789;42.610;23.040;2022-07-29T09:45:30;8.05;;;5.45;;
10479;SDS011;12789;42.610;23.040;2022-07-29T09:48:16;6.20;;;5.60;;
10479;SDS011;12789;42.610;23.040;2022-07-29T09:51:35;7.65;;;5.63;;
10479;SDS011;12789;42.610;23.040;2022-07-29T09:54:31;6.63;;;5.88;;
10479;SDS011;12789;42.610;23.040;2022-07-29T09:57:29;7.25;;;5.80;;
10479;SDS011;12789;42.610;23.040;2022-07-29T10:00:30;6.97;;;6.10;;
10479;SDS011;12789;42.610;23.040;2022-07-29T10:03:13;7.75;;;6.32;;
10479;SDS011;12789;42.610;23.040;2022-07-29T10:05:41;9.30;;;6.03;;
10479;SDS011;12789;42.610;23.040;2022-07-29T10:08:09;6.45;;;5.82;;
10479;SDS011;12789;42.610;23.040;2022-07-29T10:10:37;6.82;;;5.90;;
10479;SDS011;12789;42.610;23.040;2022-07-29T10:13:09;6.40;;;5.80;;
10479;SDS011;12789;42.610;23.040;2022-07-29T10:16:29;10.20;;;5.90;;
10479;SDS011;12789;42.610;23.040;2022-07-29T10:19:57;8.02;;;5.95;;
10479;SDS011;12789;42.610;23.040;2022-07-29T10:22:25;7.28;;;6.53;;
10479;SDS011;12789;42.610;23.040;2022-07-29T10:25:07;6.78;;;5.63;;
10479;SDS011;12789;42.610;23.040;2022-07-29T10:27:36;6.93;;;5.90;;
10479;SDS011;12789;42.610;23.040;2022-07-29T10:30:05;10.27;;;6.55;;
10479;SDS011;12789;42.610;23.040;2022-07-29T10:32:37;10.10;;;6.22;;
10479;SDS011;12789;42.610;23.040;2022-07-29T10:35:24;6.38;;;5.75;;
10479;SDS011;12789;42.610;23.040;2022-07-29T10:41:05;6.75;;;6.05;;
10479;SDS011;12789;42.610;23.040;2022-07-29T10:43:56;6.78;;;6.13;;
10479;SDS011;12789;42.610;23.040;2022-07-29T10:54:00;6.47;;;5.82;;
10479;SDS011;12789;42.610;23.040;2022-07-29T10:57:12;6.25;;;5.80;;
10479;SDS011;12789;42.610;23.040;2022-07-29T10:59:47;7.88;;;6.05;;
10479;SDS011;12789;42.610;23.040;2022-07-29T11:05:55;6.40;;;5.80;;
10479;SDS011;12789;42.610;23.040;2022-07-29T11:12:20;6.25;;;5.63;;
10479;SDS011;12789;42.610;23.040;2022-07-29T11:21:59;6.20;;;5.53;;
10479;SDS011;12789;42.610;23.040;2022-07-29T11:27:46;9.70;;;5.72;;
10479;SDS011;12789;42.610;23.040;2022-07-29T11:30:21;7.68;;;5.93;;
10479;SDS011;12789;42.610;23.040;2022-07-29T11:38:49;6.85;;;5.30;;
10479;SDS011;12789;42.610;23.040;2022-07-29T11:41:20;6.00;;;5.40;;
10479;SDS011;12789;42.610;23.040;2022-07-29T11:43:49;6.30;;;5.70;;
10479;SDS011;12789;42.610;23.040;2022-07-29T11:46:18;7.05;;;5.93;;
10479;SDS011;12789;42.610;23.040;2022-07-29T11:49:00;8.25;;;6.63;;
10479;SDS011;12789;42.610;23.040;2022-07-29T11:51:30;7.07;;;5.30;;
10479;SDS011;12789;42.610;23.040;2022-07-29T11:53:58;6.65;;;5.70;;
10479;SDS011;12789;42.610;23.040;2022-07-29T11:56:26;6.47;;;5.63;;
10479;SDS011;12789;42.610;23.040;2022-07-29T11:59:02;8.18;;;5.65;;
10479;SDS011;12789;42.610;23.040;2022-07-29T12:01:32;6.55;;;5.57;;
10479;SDS011;12789;42.610;23.040;2022-07-29T12:06:52;8.52;;;5.45;;
10479;SDS011;12789;42.610;23.040;2022-07-29T12:09:21;6.32;;;5.72;;
10479;SDS011;12789;42.610;23.040;2022-07-29T12:11:55;6.43;;;5.28;;
10479;SDS011;12789;42.610;23.040;2022-07-29T12:14:24;6.45;;;5.93;;
10479;SDS011;12789;42.610;23.040;2022-07-29T12:16:52;6.60;;;5.45;;
10479;SDS011;12789;42.610;23.040;2022-07-29T12:19:22;6.13;;;5.40;;
10479;SDS011;12789;42.610;23.040;2022-07-29T12:21:56;6.53;;;5.80;;
10479;SDS011;12789;42.610;23.040;2022-07-29T12:24:24;5.65;;;5.25;;
10479;SDS011;12789;42.610;23.040;2022-07-29T12:26:52;5.82;;;5.22;;
10479;SDS011;12789;42.610;23.040;2022-07-29T12:29:22;7.47;;;5.28;;
10479;SDS011;12789;42.610;23.040;2022-07-29T12:31:52;6.00;;;5.40;;
10479;SDS011;12789;42.610;23.040;2022-07-29T12:34:21;6.13;;;5.18;;
10479;SDS011;12789;42.610;23.040;2022-07-29T12:36:50;5.57;;;5.07;;
10479;SDS011;12789;42.610;23.040;2022-07-29T12:39:19;7.60;;;4.93;;
10479;SDS011;12789;42.610;23.040;2022-07-29T12:41:46;5.55;;;5.05;;
10479;SDS011;12789;42.610;23.040;2022-07-29T12:44:13;7.05;;;5.07;;
10479;SDS011;12789;42.610;23.040;2022-07-29T12:46:40;5.63;;;5.22;;
10479;SDS011;12789;42.610;23.040;2022-07-29T12:49:08;8.10;;;5.60;;
10479;SDS011;12789;42.610;23.040;2022-07-29T12:51:35;5.75;;;5.25;;
10479;SDS011;12789;42.610;23.040;2022-07-29T12:54:09;7.55;;;5.57;;
10479;SDS011;12789;42.610;23.040;2022-07-29T12:56:43;5.65;;;5.15;;
10479;SDS011;12789;42.610;23.040;2022-07-29T12:59:24;6.45;;;5.00;;
10479;SDS011;12789;42.610;23.040;2022-07-29T13:01:51;5.70;;;5.03;;
10479;SDS011;12789;42.610;23.040;2022-07-29T13:04:36;5.40;;;4.90;;
10479;SDS011;12789;42.610;23.040;2022-07-29T13:07:10;6.60;;;4.97;;
10479;SDS011;12789;42.610;23.040;2022-07-29T13:09:40;6.72;;;5.43;;
10479;SDS011;12789;42.610;23.040;2022-07-29T13:12:12;9.00;;;5.60;;
10479;SDS011;12789;42.610;23.040;2022-07-29T13:14:40;5.45;;;4.93;;
10479;SDS011;12789;42.610;23.040;2022-07-29T13:17:09;6.32;;;5.32;;
10479;SDS011;12789;42.610;23.040;2022-07-29T13:19:49;5.75;;;5.20;;
10479;SDS011;12789;42.610;23.040;2022-07-29T13:32:59;5.95;;;4.82;;
10479;SDS011;12789;42.610;23.040;2022-07-29T13:43:42;6.28;;;5.32;;
10479;SDS011;12789;42.610;23.040;2022-07-29T13:46:13;5.78;;;5.22;;
10479;SDS011;12789;42.610;23.040;2022-07-29T13:48:43;7.72;;;4.90;;
10479;SDS011;12789;42.610;23.040;2022-07-29T13:54:11;6.78;;;5.60;;
10479;SDS011;12789;42.610;23.040;2022-07-29T14:00:11;9.48;;;5.05;;
10479;SDS011;12789;42.610;23.040;2022-07-29T14:02:40;7.00;;;5.30;;
10479;SDS011;12789;42.610;23.040;2022-07-29T14:05:09;5.85;;;5.45;;
10479;SDS011;12789;42.610;23.040;2022-07-29T14:07:48;8.65;;;5.68;;
10479;SDS011;12789;42.610;23.040;2022-07-29T14:10:19;7.38;;;5.10;;
10479;SDS011;12789;42.610;23.040;2022-07-29T14:12:47;5.10;;;4.60;;
10479;SDS011;12789;42.610;23.040;2022-07-29T14:15:39;7.07;;;5.07;;
10479;SDS011;12789;42.610;23.040;2022-07-29T14:18:33;5.40;;;4.82;;
10479;SDS011;12789;42.610;23.040;2022-07-29T14:21:02;5.70;;;5.20;;
10479;SDS011;12789;42.610;23.040;2022-07-29T14:23:39;5.57;;;5.03;;
10479;SDS011;12789;42.610;23.040;2022-07-29T14:26:07;6.65;;;5.60;;
10479;SDS011;12789;42.610;23.040;2022-07-29T14:28:40;5.78;;;5.28;;
10479;SDS011;12789;42.610;23.040;2022-07-29T14:31:08;5.82;;;5.32;;
10479;SDS011;12789;42.610;23.040;2022-07-29T14:33:36;8.60;;;5.72;;
10479;SDS011;12789;42.610;23.040;2022-07-29T14:36:05;5.65;;;5.20;;
10479;SDS011;12789;42.610;23.040;2022-07-29T14:38:33;6.45;;;5.80;;
10479;SDS011;12789;42.610;23.040;2022-07-29T14:41:03;5.97;;;5.38;;
10479;SDS011;12789;42.610;23.040;2022-07-29T14:43:32;6.03;;;5.32;;
10479;SDS011;12789;42.610;23.040;2022-07-29T14:46:01;5.70;;;5.20;;
10479;SDS011;12789;42.610;23.040;2022-07-29T14:48:41;7.25;;;5.53;;
10479;SDS011;12789;42.610;23.040;2022-07-29T14:51:50;4.95;;;4.60;;
10479;SDS011;12789;42.610;23.040;2022-07-29T14:54:20;6.10;;;5.10;;
10479;SDS011;12789;42.610;23.040;2022-07-29T14:56:55;6.38;;;4.68;;
10479;SDS011;12789;42.610;23.040;2022-07-29T15:03:08;5.57;;;5.13;;
10479;SDS011;12789;42.610;23.040;2022-07-29T15:05:38;6.38;;;5.70;;
10479;SDS011;12789;42.610;23.040;2022-07-29T15:08:11;9.85;;;5.40;;
10479;SDS011;12789;42.610;23.040;2022-07-29T15:10:42;6.57;;;5.97;;
10479;SDS011;12789;42.610;23.040;2022-07-29T15:13:09;8.73;;;6.00;;
10479;SDS011;12789;42.610;23.040;2022-07-29T15:15:42;5.47;;;5.07;;
10479;SDS011;12789;42.610;23.040;2022-07-29T15:18:13;5.93;;;5.32;;
10479;SDS011;12789;42.610;23.040;2022-07-29T15:20:40;6.53;;;5.93;;
10479;SDS011;12789;42.610;23.040;2022-07-29T15:23:08;6.65;;;5.15;;
10479;SDS011;12789;42.610;23.040;2022-07-29T15:25:43;6.68;;;5.15;;
10479;SDS011;12789;42.610;23.040;2022-07-29T15:28:26;7.03;;;4.55;;
10479;SDS011;12789;42.610;23.040;2022-07-29T15:30:59;4.85;;;4.50;;
10479;SDS011;12789;42.610;23.040;2022-07-29T15:33:38;5.93;;;4.68;;
10479;SDS011;12789;42.610;23.040;2022-07-29T15:36:09;5.13;;;4.70;;
10479;SDS011;12789;42.610;23.040;2022-07-29T15:38:40;4.60;;;4.18;;
10479;SDS011;12789;42.610;23.040;2022-07-29T15:41:12;6.95;;;4.97;;
10479;SDS011;12789;42.610;23.040;2022-07-29T15:43:52;4.93;;;4.43;;
10479;SDS011;12789;42.610;23.040;2022-07-29T15:46:26;5.43;;;4.53;;
10479;SDS011;12789;42.610;23.040;2022-07-29T15:49:12;4.95;;;4.57;;
10479;SDS011;12789;42.610;23.040;2022-07-29T15:51:41;4.40;;;4.10;;
10479;SDS011;12789;42.610;23.040;2022-07-29T15:54:13;4.63;;;4.32;;
10479;SDS011;12789;42.610;23.040;2022-07-29T16:03:56;8.55;;;4.25;;
10479;SDS011;12789;42.610;23.040;2022-07-29T16:06:54;4.80;;;4.18;;
10479;SDS011;12789;42.610;23.040;2022-07-29T16:10:13;4.50;;;4.20;;
10479;SDS011;12789;42.610;23.040;2022-07-29T16:13:48;5.95;;;4.47;;
10479;SDS011;12789;42.610;23.040;2022-07-29T16:17:00;6.60;;;4.70;;
10479;SDS011;12789;42.610;23.040;2022-07-29T16:19:34;4.05;;;3.75;;
10479;SDS011;12789;42.610;23.040;2022-07-29T16:22:08;4.18;;;3.88;;
10479;SDS011;12789;42.610;23.040;2022-07-29T16:25:34;3.72;;;3.40;;
10479;SDS011;12789;42.610;23.040;2022-07-29T16:32:20;5.03;;;3.75;;